Time;durP1;ratioP1;P1;durP2;ratioP2;P2;SDS_P1;SDS_P2;PMS_P1;PMS_P2;Temp;Humidity;BMP_temperature;BMP_pressure;BME280_temperature;BME280_humidity;BME280_pressure;Samples;Min_cycle;Max_cycle;Signal;HPM_P1;HPM_P2
2021/12/11 00:01:51;;;;;;;36.72;20.95;;;5.40;99.90;;;;;;5092741;28;20463;-76
2021/12/11 00:04:33;;;;;;;38.28;22.17;;;5.40;99.90;;;;;;5093754;28;20111;-76
2021/12/11 00:07:05;;;;;;;40.95;23.05;;;5.30;99.90;;;;;;5092278;28;20502;-76
2021/12/11 00:09:40;;;;;;;39.72;22.73;;;5.40;99.90;;;;;;5092574;28;20040;-76
2021/12/11 00:12:31;;;;;;;36.45;22.02;;;5.40;99.90;;;;;;5093654;28;20036;-76
2021/12/11 00:15:25;;;;;;;38.78;22.67;;;5.40;99.90;;;;;;5093793;28;20036;-76
2021/12/11 00:18:06;;;;;;;39.58;23.05;;;5.50;99.90;;;;;;5093771;28;20474;-76
2021/12/11 00:20:44;;;;;;;41.00;24.45;;;5.40;99.90;;;;;;5093817;28;20071;-76
2021/12/11 00:23:22;;;;;;;40.85;23.58;;;5.40;99.90;;;;;;5093408;28;20044;-76
2021/12/11 00:25:52;;;;;;;38.42;22.23;;;5.40;99.90;;;;;;5092155;28;20074;-76
2021/12/11 00:28:19;;;;;;;39.13;23.23;;;5.40;99.90;;;;;;5093788;28;20044;-76
2021/12/11 00:31:26;;;;;;;38.30;22.75;;;5.40;99.90;;;;;;5093610;28;20044;-76
2021/12/11 00:33:53;;;;;;;37.20;22.90;;;5.40;99.90;;;;;;5092223;28;20036;-76
2021/12/11 00:36:33;;;;;;;40.05;23.65;;;5.40;99.90;;;;;;5092580;28;20040;-76
2021/12/11 00:39:12;;;;;;;41.53;23.05;;;5.40;99.90;;;;;;5087405;28;20131;-76
2021/12/11 00:42:09;;;;;;;40.90;23.08;;;5.50;99.90;;;;;;5093209;28;20087;-76
2021/12/11 00:44:41;;;;;;;41.65;23.83;;;5.50;99.90;;;;;;5091927;28;20040;-76
2021/12/11 00:47:29;;;;;;;39.17;23.52;;;5.50;99.90;;;;;;5091663;28;20439;-76
2021/12/11 00:50:01;;;;;;;38.58;23.17;;;5.50;99.90;;;;;;5091670;28;20048;-76
2021/12/11 00:53:07;;;;;;;43.13;23.75;;;5.60;99.90;;;;;;5091942;28;20147;-76
2021/12/11 00:55:41;;;;;;;39.38;23.95;;;5.60;99.90;;;;;;5092858;28;20059;-76
2021/12/11 00:58:22;;;;;;;36.75;23.55;;;5.60;99.90;;;;;;5091875;28;20127;-76
2021/12/11 01:01:27;;;;;;;37.63;23.55;;;5.60;99.90;;;;;;5093461;28;20474;-76
2021/12/11 01:04:12;;;;;;;38.92;23.85;;;5.50;99.90;;;;;;5092660;28;20044;-76
2021/12/11 01:06:49;;;;;;;36.47;22.20;;;5.50;99.90;;;;;;5093115;28;20089;-76
2021/12/11 01:09:21;;;;;;;37.67;23.02;;;5.60;99.90;;;;;;5093012;28;20050;-76
2021/12/11 01:15:46;;;;;;;39.92;23.33;;;5.60;99.90;;;;;;5095439;28;20044;-76
2021/12/11 01:24:29;;;;;;;43.20;23.80;;;5.60;99.90;;;;;;5096634;28;20097;-76
2021/12/11 01:27:02;;;;;;;39.28;23.30;;;5.50;99.90;;;;;;5096730;28;20130;-76
2021/12/11 01:29:31;;;;;;;38.90;23.55;;;5.50;99.90;;;;;;5095396;28;20048;-76
2021/12/11 01:32:01;;;;;;;40.33;24.02;;;5.50;99.90;;;;;;5095364;28;20402;-76
2021/12/11 01:34:34;;;;;;;38.80;23.80;;;5.50;99.90;;;;;;5095545;28;20143;-76
2021/12/11 01:37:09;;;;;;;38.85;24.23;;;5.50;99.90;;;;;;5096503;28;20086;-76
2021/12/11 01:39:39;;;;;;;41.90;24.60;;;5.40;99.90;;;;;;5094948;28;20137;-76
2021/12/11 01:42:25;;;;;;;42.17;23.95;;;5.50;99.90;;;;;;5094967;28;20410;-76
2021/12/11 01:44:54;;;;;;;40.22;24.33;;;5.50;99.90;;;;;;5096931;28;20102;-76
2021/12/11 01:47:31;;;;;;;42.72;24.27;;;5.50;99.90;;;;;;5094974;28;20047;-76
2021/12/11 01:50:16;;;;;;;42.70;24.75;;;5.50;99.90;;;;;;5095076;28;20462;-76
2021/12/11 01:52:55;;;;;;;40.70;23.73;;;5.40;99.90;;;;;;5096749;28;20419;-76
2021/12/11 01:55:31;;;;;;;39.88;23.45;;;5.50;99.90;;;;;;5095148;28;20040;-76
2021/12/11 01:58:06;;;;;;;38.28;23.02;;;5.50;99.90;;;;;;5094800;28;20054;-76
2021/12/11 02:01:07;;;;;;;40.85;23.23;;;5.50;99.90;;;;;;5096161;28;20078;-76
2021/12/11 02:03:36;;;;;;;37.35;21.75;;;5.40;99.90;;;;;;5092841;28;20141;-76
2021/12/11 02:06:05;;;;;;;40.38;23.52;;;5.40;99.90;;;;;;5096187;28;20028;-76
2021/12/11 02:08:37;;;;;;;38.28;22.92;;;5.40;99.90;;;;;;5094946;28;20040;-76
2021/12/11 02:11:15;;;;;;;36.88;20.70;;;5.50;99.90;;;;;;5078016;28;20039;-76
2021/12/11 02:14:00;;;;;;;36.90;21.83;;;5.50;99.90;;;;;;5096261;28;20044;-76
2021/12/11 02:16:47;;;;;;;37.92;22.25;;;5.60;99.90;;;;;;5095868;28;20060;-76
2021/12/11 02:19:19;;;;;;;38.33;22.40;;;5.60;99.90;;;;;;5095930;28;20071;-76
2021/12/11 02:21:55;;;;;;;37.95;21.42;;;5.60;99.90;;;;;;5093993;28;20486;-76
2021/12/11 02:24:40;;;;;;;35.78;21.02;;;5.50;99.90;;;;;;5095780;28;20115;-76
2021/12/11 02:27:22;;;;;;;36.42;20.27;;;5.60;99.90;;;;;;5094179;28;20047;-75
2021/12/11 02:30:24;;;;;;;37.47;21.35;;;5.70;99.90;;;;;;5095813;28;20135;-76
2021/12/11 02:33:07;;;;;;;37.03;20.25;;;5.70;99.90;;;;;;5095292;28;20060;-75
2021/12/11 02:36:01;;;;;;;36.83;20.85;;;5.50;99.90;;;;;;5095794;28;20048;-75
2021/12/11 02:38:35;;;;;;;35.17;20.25;;;5.50;99.90;;;;;;5093642;28;20504;-75
2021/12/11 02:41:30;;;;;;;35.58;19.77;;;5.40;99.90;;;;;;5094185;28;20044;-75
2021/12/11 02:44:06;;;;;;;30.67;20.00;;;5.40;99.90;;;;;;5093895;28;20076;-75
2021/12/11 02:46:47;;;;;;;31.77;18.38;;;5.40;99.90;;;;;;5094029;28;20127;-75
2021/12/11 02:49:38;;;;;;;32.83;20.00;;;5.20;99.90;;;;;;5095435;28;20451;-75
2021/12/11 02:52:22;;;;;;;34.78;19.88;;;5.20;99.90;;;;;;5095535;28;20043;-75
2021/12/11 02:55:10;;;;;;;35.63;19.80;;;5.20;99.90;;;;;;5093749;28;20105;-75
2021/12/11 02:57:49;;;;;;;34.22;20.45;;;5.10;99.90;;;;;;5095117;28;20040;-75
2021/12/11 03:00:21;;;;;;;34.83;20.38;;;5.10;99.90;;;;;;5095190;28;20119;-75
2021/12/11 03:03:03;;;;;;;34.45;20.75;;;5.20;99.90;;;;;;5093621;28;20043;-75
2021/12/11 03:05:44;;;;;;;37.58;21.52;;;5.20;99.90;;;;;;5094890;28;20083;-75
2021/12/11 03:08:18;;;;;;;37.80;22.48;;;5.20;99.90;;;;;;5094883;28;20123;-75
2021/12/11 03:10:58;;;;;;;39.47;21.35;;;5.20;99.90;;;;;;5077389;28;20071;-75
2021/12/11 03:13:31;;;;;;;36.83;21.85;;;5.30;99.90;;;;;;5094738;28;20119;-75
2021/12/11 03:16:03;;;;;;;36.10;20.42;;;5.20;99.90;;;;;;5094665;28;20046;-75
2021/12/11 03:18:37;;;;;;;34.80;19.88;;;5.10;99.90;;;;;;5094588;28;20115;-75
2021/12/11 03:21:06;;;;;;;35.13;19.55;;;5.10;99.90;;;;;;5094715;28;20048;-75
2021/12/11 03:23:34;;;;;;;35.63;19.67;;;5.00;99.90;;;;;;5093328;28;20036;-76
2021/12/11 03:26:54;;;;;;;35.78;19.80;;;4.90;99.90;;;;;;5093085;28;20566;-75
2021/12/11 03:29:21;;;;;;;40.70;21.00;;;4.90;99.90;;;;;;5094331;28;20059;-75
2021/12/11 03:32:30;;;;;;;41.40;20.63;;;4.90;99.90;;;;;;5094017;28;20518;-75
2021/12/11 03:34:57;;;;;;;47.67;23.20;;;4.90;99.90;;;;;;5094132;28;20039;-75
2021/12/11 03:37:36;;;;;;;48.72;23.35;;;4.90;99.90;;;;;;5092923;28;20054;-75
2021/12/11 03:40:54;;;;;;;50.83;23.23;;;5.00;99.90;;;;;;5076315;28;20058;-75
2021/12/11 03:43:23;;;;;;;47.45;23.08;;;5.10;99.90;;;;;;5093803;28;20135;-75
2021/12/11 03:46:04;;;;;;;48.17;22.75;;;5.10;99.90;;;;;;5094103;28;20119;-75
2021/12/11 03:48:44;;;;;;;48.90;22.88;;;5.10;99.90;;;;;;5092709;28;20486;-75
2021/12/11 03:51:18;;;;;;;47.35;23.85;;;5.00;99.90;;;;;;5092300;28;20044;-75
2021/12/11 03:54:12;;;;;;;48.13;24.42;;;5.10;99.90;;;;;;5093768;28;20050;-75
2021/12/11 03:56:47;;;;;;;43.08;23.27;;;5.10;99.90;;;;;;5094281;28;20111;-75
2021/12/11 03:59:39;;;;;;;45.58;23.38;;;5.00;99.90;;;;;;5092451;28;20143;-75
2021/12/11 04:02:11;;;;;;;46.42;24.23;;;5.00;99.90;;;;;;5092657;28;20492;-75
2021/12/11 04:04:49;;;;;;;44.53;23.15;;;5.00;99.90;;;;;;5094206;28;20039;-75
2021/12/11 04:07:23;;;;;;;48.35;23.60;;;5.00;99.90;;;;;;5092965;28;20131;-75
2021/12/11 04:09:58;;;;;;;43.25;22.35;;;5.00;99.90;;;;;;5093861;28;20047;-75
2021/12/11 04:12:43;;;;;;;42.85;22.38;;;5.00;99.90;;;;;;5092416;28;20135;-75
2021/12/11 04:15:12;;;;;;;45.20;22.97;;;5.10;99.90;;;;;;5092485;28;20456;-75
2021/12/11 04:18:05;;;;;;;43.25;22.20;;;5.00;99.90;;;;;;5091918;28;20297;-75
2021/12/11 04:20:47;;;;;;;45.70;20.77;;;5.00;99.90;;;;;;5092292;28;20046;-75
2021/12/11 04:23:40;;;;;;;39.35;19.70;;;4.90;99.90;;;;;;5092376;28;20051;-75
2021/12/11 04:26:18;;;;;;;45.03;21.05;;;4.90;99.90;;;;;;5091841;28;20135;-75
2021/12/11 04:28:46;;;;;;;43.42;21.02;;;4.90;99.90;;;;;;5093041;28;20052;-75
2021/12/11 04:31:31;;;;;;;50.78;22.95;;;4.90;99.90;;;;;;5091187;28;20048;-75
2021/12/11 04:34:03;;;;;;;46.33;23.70;;;5.00;99.90;;;;;;5091627;28;20040;-75
2021/12/11 04:36:38;;;;;;;47.85;24.55;;;5.00;99.90;;;;;;5092146;28;20075;-75
2021/12/11 04:39:09;;;;;;;43.78;21.77;;;4.90;99.90;;;;;;5092493;28;20147;-75
2021/12/11 04:41:48;;;;;;;42.25;19.92;;;5.00;99.90;;;;;;5093216;28;20067;-75
2021/12/11 04:44:24;;;;;;;41.17;20.30;;;5.00;99.90;;;;;;5091729;28;20078;-75
2021/12/11 04:46:54;;;;;;;37.50;19.13;;;5.00;99.90;;;;;;5091529;28;20439;-75
2021/12/11 04:49:36;;;;;;;41.17;19.33;;;5.00;99.90;;;;;;5092406;28;20044;-76
2021/12/11 04:52:26;;;;;;;37.28;17.98;;;4.90;99.90;;;;;;5092100;28;20514;-75
2021/12/11 04:58:09;;;;;;;43.47;18.15;;;4.70;99.90;;;;;;5093111;28;20044;-74
2021/12/11 05:00:59;;;;;;;45.17;19.33;;;4.80;99.90;;;;;;5092881;28;20044;-74
2021/12/11 05:11:50;;;;;;;75.97;18.65;;;4.80;99.90;;;;;;5091730;28;20098;-74
2021/12/11 05:14:25;;;;;;;60.30;18.13;;;4.70;99.90;;;;;;5092932;28;20036;-74
2021/12/11 05:16:58;;;;;;;76.60;15.43;;;4.70;99.90;;;;;;5092808;28;20427;-74
2021/12/11 05:19:29;;;;;;;61.03;17.55;;;4.60;99.90;;;;;;5091510;28;20050;-74
2021/12/11 05:21:57;;;;;;;87.80;18.75;;;4.60;99.90;;;;;;5092939;28;20052;-74
2021/12/11 05:24:29;;;;;;;92.97;15.48;;;4.60;99.90;;;;;;5093036;28;20063;-75
2021/12/11 05:26:57;;;;;;;98.80;17.83;;;4.60;99.90;;;;;;5092601;28;20052;-75
2021/12/11 05:29:28;;;;;;;100.38;19.13;;;4.70;99.90;;;;;;5091356;28;20121;-75
2021/12/11 05:32:00;;;;;;;115.88;23.50;;;4.60;99.90;;;;;;5091724;28;20482;-75
2021/12/11 05:34:29;;;;;;;143.30;16.70;;;4.70;99.90;;;;;;5092597;28;20046;-75
2021/12/11 05:37:00;;;;;;;123.38;17.85;;;4.50;99.90;;;;;;5092765;28;20071;-76
2021/12/11 05:39:27;;;;;;;122.85;16.40;;;4.60;99.90;;;;;;5091127;28;20561;-76
2021/12/11 05:41:58;;;;;;;155.82;21.10;;;4.70;99.90;;;;;;5091306;28;20483;-76
2021/12/11 05:44:32;;;;;;;145.10;26.35;;;4.60;99.90;;;;;;5092586;28;20465;-77
2021/12/11 05:47:03;;;;;;;106.67;15.17;;;4.50;99.90;;;;;;5092733;28;20478;-77
2021/12/11 05:49:33;;;;;;;90.20;13.43;;;4.50;99.90;;;;;;5093142;28;20123;-77
2021/12/11 05:52:03;;;;;;;136.30;17.25;;;4.60;99.90;;;;;;5073658;28;20135;-76
2021/12/11 05:54:35;;;;;;;77.20;13.23;;;4.50;99.90;;;;;;5074713;28;20146;-76
2021/12/11 05:57:09;;;;;;;80.25;14.65;;;4.50;99.90;;;;;;5074725;28;20044;-76
2021/12/11 05:59:38;;;;;;;96.18;16.88;;;4.50;99.90;;;;;;5094423;28;20063;-75
2021/12/11 06:02:27;;;;;;;77.75;17.08;;;4.40;99.90;;;;;;5094806;28;20051;-76
2021/12/11 06:04:57;;;;;;;87.40;18.48;;;4.50;99.90;;;;;;5093381;28;20068;-76
2021/12/11 06:07:28;;;;;;;76.43;12.90;;;4.70;99.90;;;;;;5095105;28;20442;-75
2021/12/11 06:10:04;;;;;;;100.47;14.48;;;4.50;99.90;;;;;;5096188;28;20483;-76
2021/12/11 06:12:58;;;;;;;68.00;13.63;;;4.50;99.90;;;;;;5096329;28;20064;-76
2021/12/11 06:15:52;;;;;;;78.75;15.15;;;4.40;99.90;;;;;;5095165;28;20545;-76
2021/12/11 06:18:19;;;;;;;93.78;18.60;;;4.50;99.90;;;;;;5094896;28;20044;-78
2021/12/11 06:20:48;;;;;;;74.13;20.52;;;4.60;99.90;;;;;;5095948;28;20036;-76
2021/12/11 06:23:17;;;;;;;82.57;18.35;;;4.70;99.90;;;;;;5096157;28;20041;-77
2021/12/11 06:26:35;;;;;;;76.57;16.25;;;4.60;99.90;;;;;;5095849;28;20380;-74
2021/12/11 06:29:04;;;;;;;49.85;12.75;;;4.60;99.90;;;;;;5093848;28;20052;-75
2021/12/11 06:32:23;;;;;;;41.92;11.52;;;4.60;99.90;;;;;;5095397;28;20398;-85
2021/12/11 06:34:58;;;;;;;63.72;14.52;;;4.40;99.90;;;;;;5095442;28;20136;-74
2021/12/11 06:37:27;;;;;;;40.88;12.75;;;4.40;99.90;;;;;;5095079;28;20513;-75
2021/12/11 06:39:54;;;;;;;53.67;13.70;;;4.40;99.90;;;;;;5093818;28;20048;-74
2021/12/11 06:42:36;;;;;;;60.00;14.93;;;4.40;99.90;;;;;;5095072;28;20042;-75
2021/12/11 06:45:05;;;;;;;46.55;14.70;;;4.50;99.90;;;;;;5096073;28;20044;-75
2021/12/11 06:47:32;;;;;;;54.72;17.65;;;4.70;99.90;;;;;;5095444;28;20036;-75
2021/12/11 06:50:05;;;;;;;40.80;14.95;;;4.60;99.90;;;;;;5095082;28;20115;-75
2021/12/11 06:52:37;;;;;;;35.92;13.85;;;4.70;99.90;;;;;;5095728;28;20040;-74
2021/12/11 06:55:06;;;;;;;22.48;10.90;;;4.50;99.90;;;;;;5094481;28;20040;-74
2021/12/11 06:57:58;;;;;;;24.20;10.32;;;4.40;99.90;;;;;;5093781;28;20043;-74
2021/12/11 07:00:35;;;;;;;30.75;13.15;;;4.30;99.90;;;;;;5107495;28;20068;-75
2021/12/11 07:03:03;;;;;;;27.85;13.70;;;4.40;99.90;;;;;;5073477;28;20548;-75
2021/12/11 07:05:34;;;;;;;30.77;13.90;;;4.50;99.90;;;;;;5073477;28;20045;-75
2021/12/11 07:08:06;;;;;;;28.63;12.20;;;4.60;99.90;;;;;;5072769;28;20049;-75
2021/12/11 07:10:34;;;;;;;34.00;12.57;;;4.50;99.90;;;;;;5074824;28;20040;-78
2021/12/11 07:13:12;;;;;;;38.35;17.00;;;4.60;99.90;;;;;;5075011;28;20399;-75
2021/12/11 07:15:40;;;;;;;25.33;11.55;;;4.80;99.90;;;;;;5072886;28;20045;-75
2021/12/11 07:18:08;;;;;;;22.80;11.30;;;4.90;99.90;;;;;;5087305;28;20044;-75
2021/12/11 07:20:37;;;;;;;24.30;13.70;;;4.70;99.90;;;;;;5095005;28;20422;-75
2021/12/11 07:23:10;;;;;;;21.73;10.77;;;4.90;99.90;;;;;;5094872;28;20036;-75
2021/12/11 07:25:50;;;;;;;25.65;12.93;;;5.00;99.90;;;;;;5094839;28;20060;-75
2021/12/11 07:28:20;;;;;;;19.65;11.80;;;4.90;99.90;;;;;;5090854;28;20040;-75
2021/12/11 07:30:50;;;;;;;17.67;8.90;;;4.90;99.90;;;;;;5084754;28;20054;-75
2021/12/11 07:33:19;;;;;;;18.95;10.43;;;4.90;99.90;;;;;;5091276;28;20085;-75
2021/12/11 07:35:48;;;;;;;18.02;9.65;;;5.00;99.90;;;;;;5090570;28;20036;-75
2021/12/11 07:38:16;;;;;;;18.75;9.65;;;5.00;99.90;;;;;;5091322;28;20067;-75
2021/12/11 07:40:51;;;;;;;19.02;9.98;;;4.90;99.90;;;;;;5092550;28;20048;-75
2021/12/11 07:43:20;;;;;;;19.40;11.52;;;4.90;99.90;;;;;;5104967;28;20123;-75
2021/12/11 07:45:48;;;;;;;17.50;10.45;;;4.90;99.90;;;;;;5090221;28;20036;-78
2021/12/11 07:48:16;;;;;;;18.25;10.88;;;5.00;99.90;;;;;;5090458;28;20076;-76
2021/12/11 07:50:46;;;;;;;19.35;10.68;;;5.00;99.90;;;;;;5089031;28;20036;-75
2021/12/11 07:53:20;;;;;;;21.08;11.75;;;5.10;99.90;;;;;;5092892;28;20040;-75
2021/12/11 07:55:57;;;;;;;21.75;12.25;;;5.00;99.90;;;;;;5093010;28;20058;-75
2021/12/11 07:58:26;;;;;;;20.73;12.95;;;5.10;99.90;;;;;;5094131;28;20042;-75
2021/12/11 08:00:53;;;;;;;20.85;11.98;;;5.00;99.90;;;;;;5075480;28;20047;-75
2021/12/11 08:06:51;;;;;;;25.42;14.95;;;5.20;99.90;;;;;;5093619;28;20044;-75
2021/12/11 08:09:52;;;;;;;25.88;13.63;;;5.00;99.90;;;;;;5091852;28;20068;-75
2021/12/11 08:15:47;;;;;;;19.30;10.63;;;5.10;99.90;;;;;;5092470;28;20047;-75
2021/12/11 08:19:06;;;;;;;21.73;11.05;;;5.40;99.90;;;;;;5092222;28;20512;-75
2021/12/11 08:21:33;;;;;;;21.52;11.23;;;5.30;99.90;;;;;;5091836;28;20414;-75
2021/12/11 08:24:27;;;;;;;26.27;13.25;;;5.50;99.90;;;;;;5092131;28;20051;-75
2021/12/11 08:27:02;;;;;;;21.10;11.85;;;5.70;99.90;;;;;;5091537;28;20503;-74
2021/12/11 08:29:33;;;;;;;20.50;11.70;;;5.70;99.90;;;;;;5092321;28;20135;-75
2021/12/11 08:32:01;;;;;;;18.92;10.95;;;5.80;99.90;;;;;;5086444;28;20453;-75
2021/12/11 08:34:30;;;;;;;16.55;10.27;;;6.00;99.90;;;;;;5073287;28;20491;-75
2021/12/11 08:37:00;;;;;;;14.40;9.65;;;6.00;99.90;;;;;;5073033;28;20044;-75
2021/12/11 08:39:28;;;;;;;17.15;10.68;;;6.00;99.90;;;;;;5084259;28;20053;-75
2021/12/11 08:41:58;;;;;;;20.05;11.63;;;5.90;99.90;;;;;;5088593;28;20093;-75
2021/12/11 08:44:34;;;;;;;21.00;11.88;;;6.10;99.90;;;;;;5071902;28;20040;-75
2021/12/11 08:47:07;;;;;;;21.20;13.18;;;6.00;99.90;;;;;;5071602;28;20127;-75
2021/12/11 08:49:37;;;;;;;19.52;11.30;;;6.00;99.90;;;;;;5056091;28;20064;-74
2021/12/11 08:52:14;;;;;;;21.38;12.15;;;5.90;99.90;;;;;;5079515;28;20073;-74
2021/12/11 08:54:45;;;;;;;20.30;12.05;;;5.80;99.90;;;;;;5093436;28;20044;-74
2021/12/11 08:57:23;;;;;;;20.65;11.85;;;5.80;99.90;;;;;;5092094;28;20044;-73
2021/12/11 08:59:55;;;;;;;21.85;13.65;;;6.00;99.90;;;;;;5087470;28;20123;-73
2021/12/11 09:02:41;;;;;;;32.00;18.95;;;6.00;99.90;;;;;;5079991;28;20044;-74
2021/12/11 09:05:48;;;;;;;28.38;17.23;;;5.90;99.90;;;;;;5090342;28;20445;-74
2021/12/11 09:08:20;;;;;;;;;;;5.90;99.90;;;;;;5092248;28;20071;-74
2021/12/11 09:11:11;;;;;;;18.63;11.80;;;5.90;99.90;;;;;;5092637;28;20019;-73
2021/12/11 09:14:07;;;;;;;17.13;11.30;;;5.80;99.90;;;;;;5093036;28;20494;-74
2021/12/11 09:16:44;;;;;;;23.92;13.95;;;5.90;99.90;;;;;;5108857;28;20044;-73
2021/12/11 09:19:18;;;;;;;29.75;16.42;;;6.00;99.90;;;;;;5093144;28;20372;-73
2021/12/11 09:21:54;;;;;;;25.23;16.25;;;6.00;99.90;;;;;;5093313;28;20036;-73
2021/12/11 09:24:24;;;;;;;24.58;13.82;;;6.00;99.90;;;;;;5091524;28;20036;-73
2021/12/11 09:27:06;;;;;;;18.65;12.52;;;6.10;99.90;;;;;;5091643;28;20040;-73
2021/12/11 09:29:52;;;;;;;22.00;14.05;;;6.10;99.90;;;;;;5091597;28;20097;-73
2021/12/11 09:32:30;;;;;;;25.60;16.10;;;6.20;99.90;;;;;;5095033;28;20039;-73
2021/12/11 09:35:10;;;;;;;22.17;13.93;;;6.30;99.90;;;;;;5096993;28;20044;-73
2021/12/11 09:37:38;;;;;;;19.15;12.00;;;6.40;99.90;;;;;;5093179;28;20040;-73
2021/12/11 09:40:11;;;;;;;18.02;11.13;;;6.50;99.90;;;;;;5095316;28;20048;-73
2021/12/11 09:42:44;;;;;;;18.45;10.43;;;6.40;99.90;;;;;;5096526;28;20044;-73
2021/12/11 09:45:24;;;;;;;19.40;10.32;;;6.40;99.90;;;;;;5095466;28;20040;-74
2021/12/11 09:48:02;;;;;;;24.38;14.20;;;6.70;99.90;;;;;;5096869;28;20552;-73
2021/12/11 09:50:50;;;;;;;20.20;13.15;;;6.80;99.90;;;;;;5112471;28;20471;-73
2021/12/11 09:53:21;;;;;;;20.75;12.68;;;6.80;99.90;;;;;;5095306;28;20102;-73
2021/12/11 09:55:49;;;;;;;17.55;11.05;;;6.90;99.90;;;;;;5094081;28;20044;-73
2021/12/11 09:58:19;;;;;;;19.17;12.65;;;6.90;99.90;;;;;;5093124;28;20044;-73
2021/12/11 10:00:55;;;;;;;19.13;11.82;;;7.00;99.90;;;;;;5095801;28;20032;-73
2021/12/11 10:03:30;;;;;;;16.38;10.48;;;7.00;99.90;;;;;;5096463;28;20040;-73
2021/12/11 10:06:13;;;;;;;;;;;7.00;99.90;;;;;;5095614;28;20044;-73
2021/12/11 10:08:46;;;;;;;20.23;12.15;;;7.00;99.90;;;;;;5095066;28;20011;-73
2021/12/11 10:11:30;;;;;;;17.85;11.23;;;7.10;99.90;;;;;;5094797;28;20060;-73
2021/12/11 10:14:03;;;;;;;20.17;11.95;;;7.20;99.90;;;;;;5094804;28;20452;-73
2021/12/11 10:16:37;;;;;;;22.58;14.25;;;7.30;99.90;;;;;;5094654;28;20063;-73
2021/12/11 10:19:11;;;;;;;18.48;11.05;;;7.40;99.90;;;;;;5095312;28;20072;-72
2021/12/11 10:21:54;;;;;;;17.05;10.80;;;7.50;99.90;;;;;;5095942;28;20482;-72
2021/12/11 10:24:28;;;;;;;16.55;9.88;;;7.70;99.90;;;;;;5094720;28;20123;-72
2021/12/11 10:26:58;;;;;;;17.08;11.25;;;7.60;99.90;;;;;;5094261;28;20089;-72
2021/12/11 10:29:28;;;;;;;14.95;9.30;;;7.70;99.90;;;;;;5094255;28;20071;-72
2021/12/11 10:32:11;;;;;;;17.05;10.00;;;7.70;99.90;;;;;;5096131;28;20543;-72
2021/12/11 10:34:40;;;;;;;17.50;9.75;;;7.70;99.90;;;;;;5094591;28;20107;-72
2021/12/11 10:37:34;;;;;;;15.45;10.32;;;7.60;99.90;;;;;;5094527;28;20066;-72
2021/12/11 10:40:29;;;;;;;16.95;11.15;;;7.60;99.90;;;;;;5088991;28;20044;-72
2021/12/11 10:43:05;;;;;;;19.30;11.05;;;7.70;99.90;;;;;;5094924;28;20451;-71
2021/12/11 10:45:38;;;;;;;16.60;10.25;;;7.70;99.90;;;;;;5094037;28;20047;-73
2021/12/11 10:48:11;;;;;;;18.60;11.35;;;7.70;99.90;;;;;;5077551;28;20048;-73
2021/12/11 10:50:43;;;;;;;19.63;11.27;;;7.70;99.90;;;;;;5091219;28;20079;-73
2021/12/11 10:53:15;;;;;;;19.30;12.13;;;7.70;99.90;;;;;;5095177;28;20595;-73
2021/12/11 10:55:43;;;;;;;15.98;10.00;;;7.80;99.90;;;;;;5093718;28;20055;-73
2021/12/11 10:58:18;;;;;;;19.00;11.98;;;7.90;99.90;;;;;;5094095;28;20483;-73
2021/12/11 11:00:52;;;;;;;14.35;9.18;;;7.90;99.90;;;;;;5083804;28;20070;-73
2021/12/11 11:03:20;;;;;;;18.05;10.43;;;8.00;99.90;;;;;;5092654;28;20052;-73
2021/12/11 11:05:50;;;;;;;15.63;9.75;;;8.00;99.90;;;;;;5092487;28;20126;-73
2021/12/11 11:08:18;;;;;;;15.75;9.02;;;8.00;99.90;;;;;;5093978;28;20044;-73
2021/12/11 11:10:55;;;;;;;15.90;9.57;;;8.00;99.90;;;;;;5094734;28;20078;-74
2021/12/11 11:13:24;;;;;;;14.27;9.30;;;7.90;99.90;;;;;;5095511;28;20123;-74
2021/12/11 11:15:56;;;;;;;12.20;8.18;;;7.90;99.90;;;;;;5093237;28;20067;-72
2021/12/11 11:18:31;;;;;;;14.98;9.15;;;7.90;99.90;;;;;;5095234;28;20036;-73
2021/12/11 11:21:27;;;;;;;13.75;9.65;;;8.00;99.90;;;;;;5093384;28;20392;-74
2021/12/11 11:24:02;;;;;;;12.40;8.68;;;8.00;99.90;;;;;;5094825;28;20506;-74
2021/12/11 11:26:55;;;;;;;14.65;10.43;;;8.10;99.90;;;;;;5094576;28;20119;-74
2021/12/11 11:29:48;;;;;;;15.73;10.82;;;8.10;99.90;;;;;;5092717;28;20083;-75
2021/12/11 11:32:20;;;;;;;12.43;8.35;;;8.00;99.90;;;;;;5072888;28;20044;-72
2021/12/11 11:39:05;;;;;;;17.67;10.75;;;7.80;99.90;;;;;;5091630;28;20050;-73
2021/12/11 11:42:01;;;;;;;24.17;14.63;;;7.70;99.90;;;;;;5093870;28;20119;-75
2021/12/11 11:44:29;;;;;;;26.98;15.25;;;7.80;99.90;;;;;;5094107;28;20517;-73
2021/12/11 11:47:04;;;;;;;25.52;15.15;;;7.90;99.90;;;;;;5094078;28;20040;-73
2021/12/11 11:50:12;;;;;;;65.75;33.17;;;7.90;99.90;;;;;;5093957;28;20094;-74
2021/12/11 11:52:43;;;;;;;18.58;12.98;;;7.90;99.90;;;;;;5092484;28;20047;-74
2021/12/11 11:55:38;;;;;;;23.60;15.38;;;7.90;99.90;;;;;;5090742;28;20048;-74
2021/12/11 11:58:27;;;;;;;17.73;10.97;;;7.90;99.90;;;;;;5092377;28;20131;-74
2021/12/11 12:01:16;;;;;;;15.95;10.55;;;7.90;99.90;;;;;;5092518;28;20504;-78
2021/12/11 12:03:44;;;;;;;15.48;10.60;;;8.00;99.90;;;;;;5091552;28;20048;-80
2021/12/11 12:07:03;;;;;;;21.02;13.43;;;7.90;99.90;;;;;;5092595;28;20036;-79
2021/12/11 12:09:57;;;;;;;23.88;16.35;;;7.80;99.90;;;;;;5094114;28;20067;-79
2021/12/11 12:16:16;;;;;;;21.35;13.43;;;7.90;99.90;;;;;;5093336;28;20558;-79
2021/12/11 12:19:09;;;;;;;24.08;16.67;;;7.80;99.90;;;;;;5093242;28;20040;-79
2021/12/11 12:21:49;;;;;;;20.35;12.13;;;7.90;99.90;;;;;;5093324;28;20106;-80
2021/12/11 12:24:20;;;;;;;17.33;10.77;;;8.00;99.90;;;;;;5091478;28;20170;-77
2021/12/11 12:26:50;;;;;;;12.63;9.93;;;8.00;99.90;;;;;;5093567;28;20062;-77
2021/12/11 12:29:23;;;;;;;18.13;12.45;;;8.00;99.90;;;;;;5093520;28;20068;-77
2021/12/11 12:32:00;;;;;;;21.77;10.90;;;8.00;99.90;;;;;;5092282;28;20431;-77
2021/12/11 12:34:32;;;;;;;22.88;16.45;;;8.00;99.90;;;;;;5075015;28;20139;-78
2021/12/11 12:37:02;;;;;;;14.90;10.88;;;8.00;99.90;;;;;;5091776;28;20040;-76
2021/12/11 12:39:38;;;;;;;15.90;10.57;;;7.90;99.90;;;;;;5090911;28;20102;-77
2021/12/11 12:42:31;;;;;;;17.27;10.73;;;7.90;99.90;;;;;;5093100;28;20111;-77
2021/12/11 12:45:09;;;;;;;18.55;12.18;;;7.90;99.90;;;;;;5092951;28;20051;-77
2021/12/11 12:47:42;;;;;;;20.23;12.60;;;7.90;99.90;;;;;;5092021;28;20055;-79
2021/12/11 12:50:18;;;;;;;17.98;11.52;;;7.90;99.90;;;;;;5091591;28;20054;-76
2021/12/11 12:52:52;;;;;;;22.35;14.30;;;7.90;99.90;;;;;;5075127;28;20040;-77
2021/12/11 12:55:36;;;;;;;21.90;14.18;;;8.00;99.90;;;;;;5091392;28;20153;-78
2021/12/11 12:58:12;;;;;;;22.90;13.25;;;8.10;99.90;;;;;;5091451;28;20139;-76
2021/12/11 13:00:46;;;;;;;99.38;53.65;;;8.20;99.90;;;;;;5091693;28;20083;-80
2021/12/11 13:03:20;;;;;;;50.30;29.30;;;8.20;99.90;;;;;;5091750;28;20130;-77
2021/12/11 13:05:52;;;;;;;27.20;18.05;;;8.40;99.90;;;;;;5092981;28;20116;-77
2021/12/11 13:08:27;;;;;;;23.10;14.32;;;8.40;99.90;;;;;;5094504;28;20051;-78
2021/12/11 13:11:01;;;;;;;15.07;9.05;;;8.30;99.90;;;;;;5097197;28;20468;-76
2021/12/11 13:13:32;;;;;;;27.55;16.73;;;8.30;99.90;;;;;;5079127;28;20052;-78
2021/12/11 13:16:10;;;;;;;35.17;20.98;;;8.30;99.90;;;;;;5095642;28;20134;-76
2021/12/11 13:18:43;;;;;;;16.52;10.27;;;8.30;99.90;;;;;;5095660;28;20560;-76
2021/12/11 13:21:19;;;;;;;24.00;14.38;;;8.30;99.90;;;;;;5097437;28;20067;-77
2021/12/11 13:23:52;;;;;;;19.27;10.70;;;8.30;99.90;;;;;;5095583;28;20048;-80
2021/12/11 13:26:22;;;;;;;18.85;12.18;;;8.40;99.90;;;;;;5096481;28;20044;-76
2021/12/11 13:28:57;;;;;;;14.00;9.18;;;8.40;99.90;;;;;;5095556;28;20048;-78
2021/12/11 13:31:31;;;;;;;19.20;13.07;;;8.40;99.90;;;;;;5096819;28;20044;-75
2021/12/11 13:34:03;;;;;;;13.82;10.43;;;8.20;99.90;;;;;;5095677;28;20048;-77
2021/12/11 13:36:36;;;;;;;13.00;9.48;;;8.10;99.90;;;;;;5095528;28;20040;-77
2021/12/11 13:39:11;;;;;;;17.58;11.50;;;8.20;99.90;;;;;;5095986;28;20060;-79
2021/12/11 13:41:44;;;;;;;15.88;8.82;;;8.10;99.90;;;;;;5078670;28;20079;-79
2021/12/11 13:44:22;;;;;;;18.13;11.73;;;8.10;99.90;;;;;;5096707;28;20070;-78
2021/12/11 13:46:54;;;;;;;19.77;12.55;;;8.20;99.90;;;;;;5097013;28;20036;-77
2021/12/11 13:49:22;;;;;;;23.30;13.40;;;8.20;99.90;;;;;;5095359;28;20071;-77
2021/12/11 13:51:49;;;;;;;20.92;12.57;;;8.20;99.90;;;;;;5094849;28;20036;-78
2021/12/11 13:54:20;;;;;;;22.95;13.18;;;8.20;99.90;;;;;;5095103;28;20147;-77
2021/12/11 13:56:52;;;;;;;21.25;13.45;;;8.20;99.90;;;;;;5096466;28;20040;-78
2021/12/11 13:59:24;;;;;;;14.35;10.02;;;8.20;99.90;;;;;;5096097;28;20051;-81
2021/12/11 14:01:55;;;;;;;13.32;8.95;;;8.20;99.90;;;;;;5095726;28;20456;-81
2021/12/11 14:04:26;;;;;;;13.90;8.35;;;8.30;99.90;;;;;;5101798;28;20043;-82
2021/12/11 14:07:14;;;;;;;14.43;7.53;;;8.30;99.90;;;;;;5101182;28;20036;-82